createdAt,value
2018-12-31T00:02:30.899Z,6.40
2018-12-31T00:04:58.147Z,6.40
2018-12-31T00:07:25.447Z,6.50
2018-12-31T00:09:52.802Z,6.50
2018-12-31T00:12:19.936Z,6.50
2018-12-31T00:14:47.363Z,6.50
2018-12-31T00:17:14.831Z,6.50
2018-12-31T00:19:41.619Z,6.50
2018-12-31T00:22:08.967Z,6.50
2018-12-31T00:24:35.958Z,6.60
2018-12-31T00:27:03.165Z,6.60
2018-12-31T00:29:30.166Z,6.60
2018-12-31T00:31:57.055Z,6.50
2018-12-31T00:34:23.821Z,6.60
2018-12-31T00:36:51.354Z,6.60
2018-12-31T00:39:18.499Z,6.60
2018-12-31T00:41:45.247Z,6.60
2018-12-31T00:44:12.287Z,6.50
2018-12-31T00:46:39.935Z,6.60
2018-12-31T00:49:06.966Z,6.60
2018-12-31T00:51:33.952Z,6.60
2018-12-31T00:54:01.324Z,6.60
2018-12-31T00:56:28.100Z,6.60
2018-12-31T00:58:55.439Z,6.60
2018-12-31T01:01:22.481Z,6.50
2018-12-31T01:03:50.264Z,6.50
2018-12-31T01:06:17.947Z,6.50
2018-12-31T01:08:44.820Z,6.50
2018-12-31T01:11:11.883Z,6.50
2018-12-31T01:13:39.229Z,6.60
2018-12-31T01:16:06.612Z,6.50
2018-12-31T01:18:34.012Z,6.50
2018-12-31T01:21:01.121Z,6.50
2018-12-31T01:23:28.146Z,6.50
2018-12-31T01:25:55.511Z,6.50
2018-12-31T01:28:22.553Z,6.50
2018-12-31T01:30:49.332Z,6.50
2018-12-31T01:33:16.953Z,6.50
2018-12-31T01:35:44.149Z,6.60
2018-12-31T01:38:11.240Z,6.60
2018-12-31T01:40:38.392Z,6.50
2018-12-31T01:43:05.147Z,6.50
2018-12-31T01:45:32.593Z,6.60
2018-12-31T01:47:59.664Z,6.60
2018-12-31T01:50:26.976Z,6.60
2018-12-31T01:52:54.352Z,6.50
2018-12-31T01:55:21.228Z,6.60
2018-12-31T01:57:48.324Z,6.60
2018-12-31T02:00:15.601Z,6.60
2018-12-31T02:02:42.389Z,6.60
2018-12-31T02:05:09.492Z,6.60
2018-12-31T02:07:37.357Z,6.70
2018-12-31T02:10:04.619Z,6.70
2018-12-31T02:12:32.578Z,6.80
2018-12-31T02:14:59.984Z,6.90
2018-12-31T02:17:27.637Z,6.90
2018-12-31T02:19:54.755Z,6.90
2018-12-31T02:22:21.691Z,6.90
2018-12-31T02:24:49.050Z,6.90
2018-12-31T02:27:16.391Z,6.90
2018-12-31T02:29:43.420Z,7.00
2018-12-31T02:32:10.667Z,7.00
2018-12-31T02:34:37.433Z,7.00
2018-12-31T02:37:04.504Z,7.00
2018-12-31T02:39:31.570Z,7.00
2018-12-31T02:41:58.592Z,7.00
2018-12-31T02:44:25.938Z,7.10
2018-12-31T02:46:52.703Z,7.00
2018-12-31T02:49:19.881Z,7.00
2018-12-31T02:51:46.642Z,7.00
2018-12-31T02:54:14.647Z,7.10
2018-12-31T02:56:42.433Z,7.10
2018-12-31T02:59:09.205Z,7.10
2018-12-31T03:01:36.703Z,7.10
2018-12-31T03:04:03.949Z,7.00
2018-12-31T03:06:31.478Z,7.10
2018-12-31T03:08:58.674Z,7.10
2018-12-31T03:11:26.233Z,7.20
2018-12-31T03:13:53.339Z,7.10
2018-12-31T03:16:20.787Z,7.20
2018-12-31T03:18:48.091Z,7.20
2018-12-31T03:21:15.140Z,7.20
2018-12-31T03:23:42.492Z,7.10
2018-12-31T03:26:09.756Z,7.20
2018-12-31T03:28:37.130Z,7.10
2018-12-31T03:31:04.508Z,7.10
2018-12-31T03:33:31.928Z,7.00
2018-12-31T03:35:59.080Z,7.10
2018-12-31T03:38:26.128Z,7.10
2018-12-31T03:40:53.249Z,7.10
2018-12-31T03:43:21.110Z,7.00
2018-12-31T03:45:48.643Z,7.10
2018-12-31T03:48:15.406Z,7.00
2018-12-31T03:50:42.793Z,7.00
2018-12-31T03:53:09.977Z,6.90
2018-12-31T03:55:37.429Z,6.90
2018-12-31T03:58:04.730Z,6.90
2018-12-31T04:00:31.616Z,6.90
2018-12-31T04:02:59.155Z,6.90
2018-12-31T04:05:26.255Z,6.90
2018-12-31T04:07:53.609Z,6.90
2018-12-31T04:10:20.832Z,7.00
2018-12-31T04:12:48.162Z,7.10
2018-12-31T04:15:16.077Z,7.10
2018-12-31T04:17:43.483Z,7.20
2018-12-31T04:20:10.361Z,7.10
2018-12-31T04:22:37.722Z,7.10
2018-12-31T04:25:04.605Z,7.10
2018-12-31T04:27:31.849Z,7.10
2018-12-31T04:29:59.244Z,7.10
2018-12-31T04:32:27.156Z,7.10
2018-12-31T04:34:54.208Z,7.10
2018-12-31T04:37:21.445Z,7.10
2018-12-31T04:39:49.013Z,7.10
2018-12-31T04:42:15.793Z,7.10
2018-12-31T04:44:42.865Z,7.20
2018-12-31T04:47:10.100Z,7.20
2018-12-31T04:49:37.345Z,7.20
2018-12-31T04:52:04.372Z,7.20
2018-12-31T04:54:31.863Z,7.20
2018-12-31T04:56:59.157Z,7.20
2018-12-31T04:59:26.275Z,7.20
2018-12-31T05:01:53.413Z,7.30
2018-12-31T05:04:22.097Z,7.30
2018-12-31T05:06:49.645Z,7.40
2018-12-31T05:09:16.732Z,7.40
2018-12-31T05:11:44.476Z,7.30
2018-12-31T05:14:12.464Z,7.40
2018-12-31T05:16:39.465Z,7.30
2018-12-31T05:19:06.497Z,7.20
2018-12-31T05:21:33.264Z,7.20
2018-12-31T05:24:00.717Z,7.20
2018-12-31T05:26:27.741Z,7.30
2018-12-31T05:28:55.355Z,7.40
2018-12-31T05:31:22.367Z,7.40
2018-12-31T05:33:50.193Z,7.30
2018-12-31T05:36:17.645Z,7.30
2018-12-31T05:38:45.049Z,7.20
2018-12-31T05:41:12.092Z,7.20
2018-12-31T05:43:39.359Z,7.20
2018-12-31T05:46:06.137Z,7.20
2018-12-31T05:48:33.167Z,7.30
2018-12-31T05:50:59.929Z,7.30
2018-12-31T05:53:27.269Z,7.30
2018-12-31T05:55:54.318Z,7.30
2018-12-31T05:58:21.573Z,7.30
2018-12-31T06:00:49.164Z,7.40
2018-12-31T06:03:16.359Z,7.30
2018-12-31T06:05:43.689Z,7.30
2018-12-31T06:08:10.776Z,7.30
2018-12-31T06:10:37.768Z,7.30
2018-12-31T06:13:04.997Z,7.30
2018-12-31T06:15:31.758Z,7.20
2018-12-31T06:17:59.085Z,7.30
2018-12-31T06:20:26.740Z,7.40
2018-12-31T06:22:54.370Z,7.30
2018-12-31T06:25:21.765Z,7.30
2018-12-31T06:27:49.264Z,7.30
2018-12-31T06:30:16.297Z,7.30
2018-12-31T06:32:43.307Z,7.20
2018-12-31T06:35:10.681Z,7.30
2018-12-31T06:37:37.720Z,7.40
2018-12-31T06:40:04.960Z,7.30
2018-12-31T06:42:32.161Z,7.40
2018-12-31T06:44:59.188Z,7.40
2018-12-31T06:47:26.437Z,7.30
2018-12-31T06:49:54.448Z,7.30
2018-12-31T06:52:21.437Z,7.30
2018-12-31T06:54:48.216Z,7.40
2018-12-31T06:57:15.741Z,7.40
2018-12-31T06:59:42.603Z,7.40
2018-12-31T07:02:09.740Z,7.40
2018-12-31T07:04:36.595Z,7.40
2018-12-31T07:07:04.749Z,7.40
2018-12-31T07:09:31.518Z,7.40
2018-12-31T07:11:58.285Z,7.30
2018-12-31T07:14:25.376Z,7.40
2018-12-31T07:16:52.748Z,7.30
2018-12-31T07:19:20.240Z,7.40
2018-12-31T07:21:47.847Z,7.40
2018-12-31T07:24:14.948Z,7.30
2018-12-31T07:26:42.604Z,7.40
2018-12-31T07:29:10.038Z,7.40
2018-12-31T07:31:37.471Z,7.40
2018-12-31T07:34:04.733Z,7.50
2018-12-31T07:36:32.400Z,7.40
2018-12-31T07:38:59.763Z,7.40
2018-12-31T07:41:27.288Z,7.40
2018-12-31T07:43:55.067Z,7.40
2018-12-31T07:46:22.128Z,7.40
2018-12-31T07:48:49.581Z,7.40
2018-12-31T07:51:16.752Z,7.40
2018-12-31T07:53:43.577Z,7.40
2018-12-31T07:56:10.823Z,7.40
2018-12-31T07:58:37.894Z,7.40
2018-12-31T08:01:04.949Z,7.50
2018-12-31T08:03:31.741Z,7.50
2018-12-31T08:05:59.829Z,7.40
2018-12-31T08:08:27.405Z,7.50
2018-12-31T08:10:54.722Z,7.50
2018-12-31T08:13:21.799Z,7.50
2018-12-31T08:15:48.836Z,7.40
2018-12-31T08:18:16.126Z,7.50
2018-12-31T08:20:44.284Z,7.50
2018-12-31T08:23:11.591Z,7.60
2018-12-31T08:25:38.719Z,7.60
2018-12-31T08:28:06.176Z,7.60
2018-12-31T08:30:33.260Z,7.60
2018-12-31T08:33:00.656Z,7.60
2018-12-31T08:35:27.764Z,7.60
2018-12-31T08:37:54.938Z,7.70
2018-12-31T08:40:21.840Z,7.80
2018-12-31T08:42:49.137Z,7.80
2018-12-31T08:45:16.104Z,7.80
2018-12-31T08:47:42.940Z,7.70
2018-12-31T08:50:10.077Z,7.70
2018-12-31T08:52:37.640Z,7.70
2018-12-31T08:55:04.511Z,7.70
2018-12-31T08:57:31.968Z,7.80
2018-12-31T08:59:58.978Z,7.80
2018-12-31T09:02:26.532Z,7.90
2018-12-31T09:04:53.598Z,7.80
2018-12-31T09:07:20.748Z,7.80
2018-12-31T09:09:47.504Z,7.80
2018-12-31T09:12:14.636Z,7.80
2018-12-31T09:14:41.992Z,7.70
2018-12-31T09:17:08.995Z,7.70
2018-12-31T09:19:36.084Z,7.70
2018-12-31T09:22:03.794Z,7.70
2018-12-31T09:24:31.124Z,7.70
2018-12-31T09:26:58.562Z,7.70
2018-12-31T09:29:26.475Z,7.60
2018-12-31T09:31:53.504Z,7.60
2018-12-31T09:34:20.612Z,7.70
2018-12-31T09:36:47.880Z,7.80
2018-12-31T09:39:14.912Z,7.80
2018-12-31T09:41:42.328Z,7.80
2018-12-31T09:44:09.432Z,7.80
2018-12-31T09:46:36.440Z,7.90
2018-12-31T09:49:03.630Z,7.90
2018-12-31T09:51:31.270Z,7.90
2018-12-31T09:53:58.559Z,7.90
2018-12-31T09:56:25.824Z,7.90
2018-12-31T09:58:52.903Z,8.00
2018-12-31T10:01:19.688Z,8.00
2018-12-31T10:03:47.678Z,8.10
2018-12-31T10:06:15.265Z,8.10
2018-12-31T10:08:49.044Z,8.20
2018-12-31T10:11:11.612Z,8.20
2018-12-31T10:13:39.057Z,8.20
2018-12-31T10:16:06.085Z,8.20
2018-12-31T10:18:33.536Z,8.20
2018-12-31T10:21:00.312Z,8.20
2018-12-31T10:23:28.185Z,8.20
2018-12-31T10:25:55.620Z,8.30
2018-12-31T10:28:22.735Z,8.30
2018-12-31T10:30:49.827Z,8.30
2018-12-31T10:33:17.507Z,8.30
2018-12-31T10:35:45.076Z,8.30
2018-12-31T10:38:12.224Z,8.40
2018-12-31T10:40:39.546Z,8.40
2018-12-31T10:43:06.298Z,8.50
2018-12-31T10:45:33.720Z,8.50
2018-12-31T10:48:00.766Z,8.60
2018-12-31T10:50:28.274Z,8.60
2018-12-31T10:52:55.293Z,8.70
2018-12-31T10:55:22.360Z,8.70
2018-12-31T10:57:49.723Z,8.70
2018-12-31T11:00:16.840Z,8.70
2018-12-31T11:02:44.116Z,8.70
2018-12-31T11:05:12.144Z,8.70
2018-12-31T11:07:39.255Z,8.80
2018-12-31T11:10:06.317Z,8.90
2018-12-31T11:12:33.813Z,9.00
2018-12-31T11:15:00.597Z,9.10
2018-12-31T11:17:27.387Z,9.20
2018-12-31T11:19:54.260Z,9.40
2018-12-31T11:22:21.176Z,9.50
2018-12-31T11:24:48.232Z,9.60
2018-12-31T11:27:15.013Z,9.70
2018-12-31T11:29:42.112Z,9.60
2018-12-31T11:32:09.508Z,9.60
2018-12-31T11:34:36.268Z,9.60
2018-12-31T11:37:03.296Z,9.60
2018-12-31T11:39:30.057Z,9.60
2018-12-31T11:41:58.107Z,9.50
2018-12-31T11:44:25.324Z,9.70
2018-12-31T11:46:52.395Z,9.70
2018-12-31T11:49:19.832Z,9.90
2018-12-31T11:51:46.602Z,10.00
2018-12-31T11:54:13.972Z,10.10
2018-12-31T11:56:40.743Z,10.10
2018-12-31T11:59:07.756Z,10.20
2018-12-31T12:01:35.738Z,10.20
2018-12-31T12:04:02.799Z,10.20
2018-12-31T12:06:29.892Z,10.20
2018-12-31T12:08:57.615Z,10.10
2018-12-31T12:11:24.993Z,10.10
2018-12-31T12:13:51.767Z,10.20
2018-12-31T12:16:18.872Z,10.10
2018-12-31T12:18:45.656Z,10.00
2018-12-31T12:21:12.700Z,9.90
2018-12-31T12:23:39.915Z,9.90
2018-12-31T12:26:07.979Z,10.00
2018-12-31T12:28:34.964Z,9.90
2018-12-31T12:31:02.057Z,9.90
2018-12-31T12:33:29.428Z,9.80
2018-12-31T12:35:56.708Z,9.70
2018-12-31T12:38:23.493Z,9.80
2018-12-31T12:40:50.251Z,9.80
2018-12-31T12:43:17.365Z,9.80
2018-12-31T12:45:44.716Z,9.90
2018-12-31T12:48:11.837Z,9.90
2018-12-31T12:50:39.192Z,9.90
2018-12-31T12:53:06.562Z,9.90
2018-12-31T12:55:34.217Z,10.00
2018-12-31T12:58:01.288Z,10.00
2018-12-31T13:00:28.731Z,10.00
2018-12-31T13:02:55.761Z,10.00
2018-12-31T13:05:23.239Z,9.90
2018-12-31T13:07:50.188Z,10.00
2018-12-31T13:10:16.951Z,10.10
2018-12-31T13:12:44.677Z,10.20
2018-12-31T13:15:12.029Z,10.30
2018-12-31T13:17:38.888Z,10.40
2018-12-31T13:20:05.851Z,10.40
2018-12-31T13:22:32.881Z,10.40
2018-12-31T13:24:59.949Z,10.40
2018-12-31T13:27:27.045Z,10.30
2018-12-31T13:29:53.827Z,10.30
2018-12-31T13:32:21.317Z,10.20
2018-12-31T13:34:48.592Z,10.10
2018-12-31T13:37:16.020Z,10.10
2018-12-31T13:39:42.780Z,10.00
2018-12-31T13:42:09.980Z,10.00
2018-12-31T13:44:37.129Z,9.90
2018-12-31T13:47:04.665Z,9.90
2018-12-31T13:49:32.137Z,9.90
2018-12-31T13:51:58.917Z,9.90
2018-12-31T13:54:25.923Z,9.80
2018-12-31T13:56:52.848Z,9.90
2018-12-31T13:59:19.820Z,9.90
2018-12-31T14:01:47.291Z,9.90
2018-12-31T14:04:14.371Z,9.90
2018-12-31T14:06:41.497Z,9.90
2018-12-31T14:09:10.050Z,10.00
2018-12-31T14:11:37.551Z,10.00
2018-12-31T14:14:04.761Z,10.00
2018-12-31T14:16:32.553Z,9.90
2018-12-31T14:18:59.783Z,9.80
2018-12-31T14:21:26.853Z,9.80
2018-12-31T14:23:55.104Z,9.90
2018-12-31T14:26:22.569Z,9.80
2018-12-31T14:28:50.144Z,9.80
2018-12-31T14:31:17.174Z,9.70
2018-12-31T14:33:44.044Z,9.70
2018-12-31T14:36:11.237Z,9.70
2018-12-31T14:38:38.251Z,9.70
2018-12-31T14:41:05.029Z,9.70
2018-12-31T14:43:32.024Z,9.70
2018-12-31T14:45:59.306Z,9.70
2018-12-31T14:48:26.168Z,9.70
2018-12-31T14:50:53.652Z,9.60
2018-12-31T14:53:20.687Z,9.60
2018-12-31T14:55:48.528Z,9.50
2018-12-31T14:58:15.527Z,9.50
2018-12-31T15:00:42.581Z,9.50
2018-12-31T15:03:09.348Z,9.50
2018-12-31T15:05:36.276Z,9.50
2018-12-31T15:08:03.537Z,9.40
2018-12-31T15:10:31.247Z,9.40
2018-12-31T15:12:58.828Z,9.40
2018-12-31T15:15:26.196Z,9.40
2018-12-31T15:17:53.222Z,9.40
2018-12-31T15:20:20.285Z,9.40
2018-12-31T15:22:47.340Z,9.40
2018-12-31T15:25:14.492Z,9.30
2018-12-31T15:27:41.715Z,9.30
2018-12-31T15:30:08.800Z,9.30
2018-12-31T15:32:36.140Z,9.30
2018-12-31T15:35:03.980Z,9.20
2018-12-31T15:37:31.061Z,9.20
2018-12-31T15:39:58.488Z,9.20
2018-12-31T15:42:25.581Z,9.20
2018-12-31T15:44:53.186Z,9.20
2018-12-31T15:47:20.375Z,9.20
2018-12-31T15:49:47.646Z,9.10
2018-12-31T15:52:14.668Z,9.00
2018-12-31T15:54:41.814Z,9.10
2018-12-31T15:57:08.964Z,9.10
2018-12-31T15:59:35.999Z,9.10
2018-12-31T16:02:02.877Z,9.10
2018-12-31T16:04:29.930Z,9.10
2018-12-31T16:06:57.801Z,9.10
2018-12-31T16:09:25.546Z,9.10
2018-12-31T16:11:52.384Z,9.00
2018-12-31T16:14:20.009Z,9.10
2018-12-31T16:16:47.289Z,9.10
2018-12-31T16:19:14.340Z,9.00
2018-12-31T16:21:42.211Z,9.00
2018-12-31T16:24:09.171Z,9.00
2018-12-31T16:26:36.276Z,9.00
2018-12-31T16:29:03.663Z,9.00
2018-12-31T16:31:31.092Z,9.00
2018-12-31T16:33:58.147Z,9.00
2018-12-31T16:36:25.337Z,8.80
2018-12-31T16:38:52.552Z,8.80
2018-12-31T16:41:19.520Z,8.70
2018-12-31T16:43:46.972Z,8.70
2018-12-31T16:46:13.833Z,8.70
2018-12-31T16:48:41.304Z,8.70
2018-12-31T16:51:09.148Z,8.80
2018-12-31T16:53:36.559Z,8.80
2018-12-31T16:56:03.427Z,8.80
2018-12-31T16:58:30.791Z,8.80
2018-12-31T17:01:17.433Z,8.80
2018-12-31T17:03:44.469Z,8.80
2018-12-31T17:06:11.513Z,8.80
2018-12-31T17:08:38.876Z,8.80
2018-12-31T17:11:06.417Z,8.90
2018-12-31T17:13:33.828Z,8.80
2018-12-31T17:16:01.475Z,8.80
2018-12-31T17:18:28.701Z,8.80
2018-12-31T17:20:56.444Z,8.90
2018-12-31T17:23:23.964Z,8.90
2018-12-31T17:25:50.770Z,8.70
2018-12-31T17:28:18.893Z,8.70
2018-12-31T17:30:46.187Z,8.70
2018-12-31T17:33:13.739Z,8.70
2018-12-31T17:35:40.779Z,8.80
2018-12-31T17:38:08.554Z,8.80
2018-12-31T17:40:36.412Z,8.70
2018-12-31T17:43:03.528Z,8.60
2018-12-31T17:45:31.461Z,8.70
2018-12-31T17:47:58.841Z,8.70
2018-12-31T17:50:25.945Z,8.80
2018-12-31T17:52:52.976Z,8.80
2018-12-31T17:55:20.242Z,8.80
2018-12-31T17:57:47.771Z,8.70
2018-12-31T18:00:14.932Z,8.70
2018-12-31T18:02:42.012Z,8.60
2018-12-31T18:05:09.555Z,8.50
2018-12-31T18:07:36.407Z,8.50
2018-12-31T18:10:04.164Z,8.50
2018-12-31T18:12:31.569Z,8.60
2018-12-31T18:14:58.778Z,8.60
2018-12-31T18:17:25.835Z,8.70
2018-12-31T18:19:53.021Z,8.70
2018-12-31T18:22:20.432Z,8.70
2018-12-31T18:24:47.500Z,8.70
2018-12-31T18:27:14.830Z,8.60
2018-12-31T18:29:42.192Z,8.60
2018-12-31T18:32:09.194Z,8.50
2018-12-31T18:34:36.412Z,8.50
2018-12-31T18:37:03.512Z,8.50
2018-12-31T18:39:31.204Z,8.50
2018-12-31T18:41:59.084Z,8.50
2018-12-31T18:44:25.848Z,8.40
2018-12-31T18:46:52.624Z,8.40
2018-12-31T18:49:19.908Z,8.40
2018-12-31T18:51:47.016Z,8.40
2018-12-31T18:54:14.412Z,8.30
2018-12-31T18:56:41.928Z,8.30
2018-12-31T18:59:09.333Z,8.30
2018-12-31T19:01:36.700Z,8.40
2018-12-31T19:04:03.726Z,8.50
2018-12-31T19:06:30.504Z,8.50
2018-12-31T19:08:57.264Z,8.50
2018-12-31T19:11:24.844Z,8.40
2018-12-31T19:13:51.623Z,8.40
2018-12-31T19:16:19.141Z,8.40
2018-12-31T19:18:46.830Z,8.40
2018-12-31T19:21:13.869Z,8.40
2018-12-31T19:23:41.108Z,8.50
2018-12-31T19:26:08.741Z,8.50
2018-12-31T19:28:36.071Z,8.40
2018-12-31T19:31:03.312Z,8.40
2018-12-31T19:33:30.556Z,8.30
2018-12-31T19:35:57.908Z,8.30
2018-12-31T19:38:25.085Z,8.20
2018-12-31T19:40:52.195Z,8.20
2018-12-31T19:43:19.484Z,8.20
2018-12-31T19:45:46.588Z,8.10
2018-12-31T19:48:14.144Z,8.20
2018-12-31T19:50:41.489Z,8.20
2018-12-31T19:53:08.296Z,8.30
2018-12-31T19:55:35.060Z,8.40
2018-12-31T19:58:02.472Z,8.40
2018-12-31T20:00:29.235Z,8.50
2018-12-31T20:02:56.245Z,8.40
2018-12-31T20:05:23.305Z,8.40
2018-12-31T20:07:50.659Z,8.40
2018-12-31T20:10:18.010Z,8.40
2018-12-31T20:12:45.032Z,8.40
2018-12-31T20:15:12.235Z,8.30
2018-12-31T20:17:39.580Z,8.30
2018-12-31T20:20:06.816Z,8.30
2018-12-31T20:22:33.840Z,8.30
2018-12-31T20:25:01.330Z,8.20
2018-12-31T20:27:28.784Z,8.20
2018-12-31T20:29:56.712Z,8.30
2018-12-31T20:32:23.632Z,8.20
2018-12-31T20:34:50.435Z,8.20
2018-12-31T20:37:17.533Z,8.20
2018-12-31T20:39:44.863Z,8.20
2018-12-31T20:42:11.995Z,8.20
2018-12-31T20:44:39.019Z,8.20
2018-12-31T20:47:06.388Z,8.20
2018-12-31T20:49:33.448Z,8.10
2018-12-31T20:52:00.452Z,8.10
2018-12-31T20:54:27.224Z,8.00
2018-12-31T20:56:54.541Z,8.00
2018-12-31T20:59:21.636Z,8.10
2018-12-31T21:01:49.020Z,8.10
2018-12-31T21:04:15.796Z,8.10
2018-12-31T21:06:42.556Z,8.00
2018-12-31T21:09:09.784Z,8.10
2018-12-31T21:11:37.255Z,8.10
2018-12-31T21:14:04.315Z,8.10
2018-12-31T21:16:31.279Z,8.20
2018-12-31T21:18:58.727Z,8.10
2018-12-31T21:21:25.733Z,8.10
2018-12-31T21:23:53.061Z,7.90
2018-12-31T21:26:20.292Z,7.90
2018-12-31T21:28:47.636Z,7.80
2018-12-31T21:31:14.399Z,7.80
2018-12-31T21:33:41.530Z,7.90
2018-12-31T21:36:08.553Z,7.90
2018-12-31T21:38:35.746Z,7.90
2018-12-31T21:41:03.265Z,8.00
2018-12-31T21:43:30.020Z,8.00
2018-12-31T21:45:57.308Z,8.00
2018-12-31T21:48:24.340Z,8.10
2018-12-31T21:50:51.112Z,8.10
2018-12-31T21:53:18.241Z,8.00
2018-12-31T21:55:45.012Z,7.90
2018-12-31T21:58:11.780Z,7.90
2018-12-31T22:00:38.843Z,7.90
2018-12-31T22:03:05.944Z,7.90
2018-12-31T22:05:32.715Z,7.90
2018-12-31T22:07:59.788Z,7.80
2018-12-31T22:10:26.563Z,7.80
2018-12-31T22:12:53.847Z,7.80
2018-12-31T22:15:20.868Z,7.70
2018-12-31T22:17:47.633Z,7.70
2018-12-31T22:20:15.233Z,7.70
2018-12-31T22:22:42.296Z,7.70
2018-12-31T22:25:09.754Z,7.70
2018-12-31T22:27:36.788Z,7.70
2018-12-31T22:30:05.145Z,7.70
2018-12-31T22:32:32.148Z,7.70
2018-12-31T22:34:59.167Z,7.80
2018-12-31T22:37:26.420Z,7.70
2018-12-31T22:39:53.887Z,7.60
2018-12-31T22:42:21.342Z,7.60
2018-12-31T22:44:48.238Z,7.50
2018-12-31T22:47:15.300Z,7.40
2018-12-31T22:49:42.452Z,7.50
2018-12-31T22:52:09.257Z,7.40
2018-12-31T22:54:36.738Z,7.50
2018-12-31T22:57:04.074Z,7.40
2018-12-31T22:59:31.297Z,7.50
2018-12-31T23:01:58.483Z,7.50
2018-12-31T23:04:25.561Z,7.50
2018-12-31T23:06:56.300Z,7.60
2018-12-31T23:09:24.064Z,7.60
2018-12-31T23:11:51.436Z,7.60
2018-12-31T23:14:18.196Z,7.70
2018-12-31T23:16:48.288Z,7.80
2018-12-31T23:19:15.316Z,7.70
2018-12-31T23:21:42.825Z,7.80
2018-12-31T23:24:09.920Z,7.80
2018-12-31T23:26:36.701Z,7.80
2018-12-31T23:29:03.470Z,7.70
2018-12-31T23:31:30.849Z,7.60
2018-12-31T23:33:58.929Z,7.60
2018-12-31T23:36:25.691Z,7.70
2018-12-31T23:38:53.372Z,7.70
2018-12-31T23:41:20.372Z,7.80
2018-12-31T23:43:47.848Z,7.80
2018-12-31T23:46:14.890Z,7.70
2018-12-31T23:48:42.002Z,7.60
2018-12-31T23:51:08.815Z,7.60
2018-12-31T23:53:35.853Z,7.60
2018-12-31T23:56:02.948Z,7.60
2018-12-31T23:58:30.288Z,7.50
